MMTO/TLC METAR and TAF weather

Enter ICAO airport designator
Station Type Date Time Source
MMTO METAR 2019/07/20 04:53 UTC NOAA

MMTO 200453Z 00000KT 4SM SCT070 BKN200 11/10 A3040 RMK 8/032 HZY


Station Type Date Time Source
MMTO Decoded METAR 2019/07/20 04:53 UTC NOAA

Toluca / Jose Maria , Mexico (MMTO) 19-21N 099-34W
Jul 20, 2019 - 12:53 AM EDT / 2019.07.20 0453 UTC
Wind: Calm:0
Visibility: 4 mile(s):0
Sky conditions: mostly cloudy
Temperature: 51 F (11 C)
Dew Point: 50 F (10 C)
Relative Humidity: 93%
Pressure (altimeter): 30.4 in. Hg (1029 hPa)
ob: MMTO 200453Z 00000KT 4SM SCT070 BKN200 11/10 A3040 RMK 8/032 HZY
cycle: 5

Station Type Date Time Source
MMTO TAF 2019/07/19 19:51 UTC NOAA

TAF
AMD MMTO 191844Z 1919/2024 14005KT 6SM HZ BKN015CB BKN070 TX21/1919Z TN10/2012Z
TEMPO 1919/1923 3SM TSRA BKN010CB
FM200000 14005KT 4SM -TSRA BKN012CB
FM200600 12005KT 3SM BR HZ BKN010 BKN070
FM201300 12005KT 5SM HZ SCT015 BKN070
FM202000 13005KT 6SM HZ VC SH BKN015CB
TEMPO 2021/2024 3SM TSRA BKN010CB

Example: see airport list